Time;durP1;ratioP1;P1;durP2;ratioP2;P2;SDS_P1;SDS_P2;PMS_P1;PMS_P2;Temp;Humidity;BMP_temperature;BMP_pressure;BME280_temperature;BME280_humidity;BME280_pressure;Samples;Min_cycle;Max_cycle;Signal;HPM_P1;HPM_P2
2023/11/16 00:02:27;;;;;;;4.90;3.93;;;11.90;99.90;;;;;;5051749;28;20195;-64
2023/11/16 00:04:52;;;;;;;7.50;3.30;;;12.00;99.90;;;;;;5051237;28;20174;-63
2023/11/16 00:07:18;;;;;;;3.87;3.60;;;11.90;99.90;;;;;;5051838;28;20424;-64
2023/11/16 00:09:44;;;;;;;5.60;5.03;;;11.90;99.90;;;;;;5051355;28;20181;-63
2023/11/16 00:12:11;;;;;;;5.23;3.40;;;11.80;99.90;;;;;;5051111;28;20423;-64
2023/11/16 00:14:38;;;;;;;7.53;4.23;;;11.90;99.90;;;;;;5033718;28;20644;-63
2023/11/16 00:17:07;;;;;;;5.20;4.40;;;11.70;99.90;;;;;;5051026;28;20419;-64
2023/11/16 00:19:35;;;;;;;4.97;3.90;;;11.70;99.90;;;;;;5055343;28;20780;-64
2023/11/16 00:22:01;;;;;;;8.00;4.23;;;11.70;99.90;;;;;;5054905;28;20426;-64
2023/11/16 00:24:27;;;;;;;5.80;4.10;;;11.70;99.90;;;;;;5055343;28;20464;-64
2023/11/16 00:26:54;;;;;;;4.90;4.20;;;11.70;99.90;;;;;;5036839;28;20420;-63
2023/11/16 00:29:20;;;;;;;7.03;4.00;;;11.70;99.90;;;;;;5055715;28;20170;-63
2023/11/16 00:31:46;;;;;;;5.73;4.50;;;11.70;99.90;;;;;;5055613;28;20467;-64
2023/11/16 00:34:12;;;;;;;7.17;4.53;;;11.70;99.90;;;;;;5054445;28;20422;-64
2023/11/16 00:36:39;;;;;;;5.73;3.90;;;11.70;99.90;;;;;;5055353;28;20172;-64
2023/11/16 00:39:07;;;;;;;6.67;3.70;;;11.70;99.90;;;;;;5054815;28;20198;-63
2023/11/16 00:41:34;;;;;;;7.47;3.53;;;11.70;99.90;;;;;;5037858;28;20417;-64
2023/11/16 00:44:04;;;;;;;6.77;3.70;;;11.70;99.90;;;;;;5054439;28;20443;-64
2023/11/16 00:46:32;;;;;;;4.10;3.80;;;11.70;99.90;;;;;;5055165;28;20469;-64
2023/11/16 00:48:59;;;;;;;9.93;4.50;;;11.70;99.90;;;;;;5054370;28;20405;-63
2023/11/16 00:51:25;;;;;;;9.30;3.97;;;11.70;99.90;;;;;;5054896;28;20420;-64
2023/11/16 00:53:51;;;;;;;6.07;3.80;;;11.70;99.90;;;;;;5054852;28;20480;-64
2023/11/16 00:56:18;;;;;;;6.00;3.80;;;11.70;99.90;;;;;;5054147;28;20429;-64
2023/11/16 00:58:47;;;;;;;4.47;4.03;;;11.80;99.90;;;;;;5055279;28;20417;-64
2023/11/16 01:01:15;;;;;;;8.10;3.90;;;11.80;99.90;;;;;;5054241;28;20745;-64
2023/11/16 01:03:41;;;;;;;4.70;3.70;;;11.80;99.90;;;;;;5054961;28;20442;-64
2023/11/16 01:06:08;;;;;;;8.50;3.90;;;11.80;99.90;;;;;;5054026;28;20414;-63
2023/11/16 01:08:36;;;;;;;8.50;3.47;;;11.80;99.90;;;;;;5054885;28;20754;-64
2023/11/16 01:11:03;;;;;;;7.20;3.73;;;11.80;99.90;;;;;;5053735;28;20918;-63
2023/11/16 01:13:38;;;;;;;5.70;3.90;;;11.70;99.90;;;;;;5054486;28;20421;-64
2023/11/16 01:16:14;;;;;;;6.27;3.87;;;11.70;99.90;;;;;;5034177;28;20833;-64
2023/11/16 01:18:49;;;;;;;4.57;3.23;;;11.60;99.90;;;;;;5017143;28;20414;-64
2023/11/16 01:21:16;;;;;;;6.20;4.03;;;11.70;99.90;;;;;;5034215;28;20680;-64
2023/11/16 01:23:45;;;;;;;7.00;4.60;;;11.70;99.90;;;;;;5017029;28;20450;-63
2023/11/16 01:26:15;;;;;;;4.80;3.60;;;11.70;99.90;;;;;;5052506;28;20408;-64
2023/11/16 01:29:00;;;;;;;4.80;4.10;;;11.70;99.90;;;;;;5054026;28;20498;-64
2023/11/16 01:31:27;;;;;;;6.90;3.60;;;11.60;99.90;;;;;;5053912;28;20781;-64
2023/11/16 01:33:53;;;;;;;6.50;5.00;;;11.60;99.90;;;;;;5054127;28;20497;-64
2023/11/16 01:36:19;;;;;;;5.70;3.43;;;11.60;99.90;;;;;;5053827;28;20521;-64
2023/11/16 01:38:48;;;;;;;5.23;3.47;;;11.40;99.90;;;;;;5054137;28;20502;-64
2023/11/16 01:41:14;;;;;;;4.63;4.23;;;11.60;99.90;;;;;;5053281;28;20474;-64
2023/11/16 01:43:40;;;;;;;6.70;3.60;;;11.60;99.90;;;;;;5053619;28;20449;-64
2023/11/16 01:46:06;;;;;;;3.77;3.30;;;11.70;99.90;;;;;;5053218;28;20419;-64
2023/11/16 01:48:34;;;;;;;12.03;3.70;;;11.70;99.90;;;;;;5036320;28;20410;-63
2023/11/16 01:51:04;;;;;;;5.73;3.43;;;11.70;99.90;;;;;;5053642;28;20428;-64
2023/11/16 01:53:35;;;;;;;10.00;3.37;;;11.70;99.90;;;;;;5053938;28;20881;-64
2023/11/16 01:56:02;;;;;;;4.30;3.37;;;11.70;99.90;;;;;;5053539;28;20399;-64
2023/11/16 01:58:31;;;;;;;3.80;3.40;;;11.70;99.90;;;;;;5053570;28;20427;-65
2023/11/16 02:00:58;;;;;;;3.80;2.93;;;11.70;99.90;;;;;;5053534;28;20417;-64
2023/11/16 02:03:23;;;;;;;6.23;4.60;;;11.60;99.90;;;;;;5053143;28;20448;-64
2023/11/16 02:05:49;;;;;;;5.50;3.57;;;11.60;99.90;;;;;;5053325;28;20463;-63
2023/11/16 02:08:15;;;;;;;4.63;3.47;;;11.60;99.90;;;;;;5053111;28;20181;-63
2023/11/16 02:10:41;;;;;;;12.23;4.23;;;11.70;99.90;;;;;;5053391;28;20427;-64
2023/11/16 02:13:23;;;;;;;6.67;3.60;;;11.70;99.90;;;;;;5053035;28;20168;-63
2023/11/16 02:15:53;;;;;;;8.00;3.40;;;11.70;99.90;;;;;;5052653;28;20214;-64
2023/11/16 02:18:20;;;;;;;4.53;3.17;;;11.80;99.90;;;;;;5031445;28;20970;-64
2023/11/16 02:20:46;;;;;;;8.60;4.30;;;11.80;99.90;;;;;;5052507;28;20889;-64
2023/11/16 02:23:13;;;;;;;3.47;3.10;;;11.80;99.90;;;;;;5052879;28;20471;-64
2023/11/16 02:25:46;;;;;;;9.50;3.90;;;11.80;99.90;;;;;;5052900;28;20799;-64
2023/11/16 02:28:13;;;;;;;6.37;3.10;;;11.80;99.90;;;;;;5052531;28;20502;-64
2023/11/16 02:30:40;;;;;;;5.37;3.27;;;11.80;99.90;;;;;;5052865;28;20415;-64
2023/11/16 02:33:06;;;;;;;6.63;3.37;;;11.80;99.90;;;;;;5052057;28;20476;-63
2023/11/16 02:35:32;;;;;;;7.67;3.93;;;11.70;99.90;;;;;;5035205;28;20435;-64
2023/11/16 02:37:59;;;;;;;5.00;3.50;;;11.80;99.90;;;;;;5035179;28;20505;-64
2023/11/16 02:40:26;;;;;;;9.07;3.93;;;11.70;99.90;;;;;;5052157;28;20436;-64
2023/11/16 02:42:52;;;;;;;3.43;2.90;;;11.80;99.90;;;;;;5052489;28;20440;-64
2023/11/16 02:45:19;;;;;;;5.27;4.87;;;11.70;99.90;;;;;;5052006;28;20809;-64
2023/11/16 02:47:46;;;;;;;4.77;3.40;;;11.70;99.90;;;;;;5052905;28;20881;-64
2023/11/16 02:50:14;;;;;;;9.67;3.83;;;11.70;99.90;;;;;;5051700;28;20417;-64
2023/11/16 02:52:43;;;;;;;7.87;3.37;;;11.70;99.90;;;;;;5034361;28;20471;-64
2023/11/16 02:55:09;;;;;;;8.97;3.23;;;11.70;99.90;;;;;;5052293;28;20431;-64
2023/11/16 02:57:36;;;;;;;9.17;3.80;;;11.80;99.90;;;;;;5034885;28;20430;-64
2023/11/16 03:00:03;;;;;;;4.30;3.00;;;11.70;99.90;;;;;;5034585;28;20424;-63
2023/11/16 03:02:30;;;;;;;4.33;3.63;;;11.70;99.90;;;;;;5034302;28;20456;-64
2023/11/16 03:04:56;;;;;;;5.27;3.57;;;11.80;99.90;;;;;;5052230;28;20420;-64
2023/11/16 03:07:22;;;;;;;12.60;3.90;;;11.80;99.90;;;;;;5052363;28;20837;-64
2023/11/16 03:09:48;;;;;;;6.03;3.80;;;11.80;99.90;;;;;;5051736;28;20178;-63
2023/11/16 03:12:14;;;;;;;6.33;3.53;;;11.80;99.90;;;;;;5051934;28;20973;-63
2023/11/16 03:14:40;;;;;;;6.77;3.40;;;11.90;99.90;;;;;;5030690;28;20432;-64
2023/11/16 03:17:06;;;;;;;6.47;3.77;;;11.80;99.90;;;;;;5046512;28;20613;-64
2023/11/16 03:19:34;;;;;;;4.33;3.50;;;11.80;99.90;;;;;;5052328;28;20902;-64
2023/11/16 03:22:03;;;;;;;4.50;3.73;;;11.80;99.90;;;;;;5052284;28;20466;-64
2023/11/16 03:24:30;;;;;;;4.40;4.00;;;11.80;99.90;;;;;;5051976;28;20858;-64
2023/11/16 03:26:56;;;;;;;4.43;3.20;;;11.80;99.90;;;;;;5052682;28;20491;-64
2023/11/16 03:29:21;;;;;;;8.90;4.00;;;11.90;99.90;;;;;;5051402;28;20499;-64
2023/11/16 03:31:47;;;;;;;9.80;4.40;;;11.80;99.90;;;;;;5052090;28;20165;-64
2023/11/16 03:34:13;;;;;;;3.90;3.20;;;11.80;99.90;;;;;;5033478;28;20319;-64
2023/11/16 03:36:39;;;;;;;5.33;3.40;;;11.80;99.90;;;;;;5052087;28;20420;-64
2023/11/16 03:39:05;;;;;;;5.73;3.63;;;11.80;99.90;;;;;;5051388;28;20429;-63
2023/11/16 03:41:32;;;;;;;3.90;3.60;;;11.80;99.90;;;;;;5052294;28;20178;-64
2023/11/16 03:43:57;;;;;;;8.87;3.53;;;11.80;99.90;;;;;;5051588;28;20656;-63
2023/11/16 03:46:23;;;;;;;6.37;3.80;;;11.80;99.90;;;;;;5034167;28;20464;-64
2023/11/16 03:48:49;;;;;;;7.60;3.90;;;11.80;99.90;;;;;;5051584;28;20491;-64
2023/11/16 03:51:16;;;;;;;4.73;4.30;;;11.80;99.90;;;;;;5051533;28;20218;-64
2023/11/16 03:53:43;;;;;;;4.47;3.70;;;11.80;99.90;;;;;;5054565;28;20168;-63
2023/11/16 03:56:08;;;;;;;4.93;3.70;;;11.80;99.90;;;;;;5054837;28;20423;-63
2023/11/16 03:58:34;;;;;;;5.03;3.80;;;11.80;99.90;;;;;;5056065;28;20444;-64
2023/11/16 04:01:00;;;;;;;7.00;4.20;;;11.80;99.90;;;;;;5055843;28;20173;-64
2023/11/16 04:03:26;;;;;;;4.77;4.30;;;11.80;99.90;;;;;;5055239;28;20245;-64
2023/11/16 04:05:51;;;;;;;4.60;3.77;;;11.80;99.90;;;;;;5055627;28;20193;-64
2023/11/16 04:08:17;;;;;;;4.30;3.73;;;11.80;99.90;;;;;;5054845;28;20178;-63
2023/11/16 04:10:45;;;;;;;5.03;3.43;;;11.80;99.90;;;;;;5037981;28;20170;-63
2023/11/16 04:13:11;;;;;;;8.00;4.97;;;11.90;99.90;;;;;;5055277;28;20977;-63
2023/11/16 04:15:38;;;;;;;6.37;4.30;;;11.90;99.90;;;;;;5052245;28;20459;-64
2023/11/16 04:18:05;;;;;;;6.77;4.70;;;11.90;99.90;;;;;;5076157;28;20470;-63
2023/11/16 04:20:31;;;;;;;6.07;4.43;;;11.90;99.90;;;;;;5074513;28;20436;-64
2023/11/16 04:22:57;;;;;;;6.40;5.10;;;11.90;99.90;;;;;;5075256;28;20439;-63
2023/11/16 04:25:25;;;;;;;7.50;4.70;;;11.90;99.90;;;;;;5075366;28;20168;-63
2023/11/16 04:27:59;;;;;;;8.07;4.10;;;11.90;99.90;;;;;;5075419;28;20402;-63
2023/11/16 04:30:30;;;;;;;6.20;4.27;;;11.80;99.90;;;;;;5074175;28;20407;-62
2023/11/16 04:32:57;;;;;;;6.70;4.53;;;11.80;99.90;;;;;;5072767;28;20495;-62
2023/11/16 04:35:23;;;;;;;7.03;4.40;;;11.80;99.90;;;;;;5074230;28;20513;-63
2023/11/16 04:37:50;;;;;;;11.33;4.53;;;11.80;99.90;;;;;;5074797;28;20419;-63
2023/11/16 04:40:16;;;;;;;6.83;4.40;;;11.70;99.90;;;;;;5074322;28;20478;-62
2023/11/16 04:42:43;;;;;;;7.47;5.10;;;11.60;99.90;;;;;;5075614;28;20451;-62
2023/11/16 04:45:12;;;;;;;9.07;5.70;;;11.60;99.90;;;;;;5074015;28;20429;-61
2023/11/16 04:47:46;;;;;;;9.57;4.23;;;11.60;99.90;;;;;;5073897;28;20424;-63
2023/11/16 04:50:17;;;;;;;5.67;4.47;;;11.70;99.90;;;;;;5074075;28;20416;-62
2023/11/16 04:52:44;;;;;;;8.70;4.80;;;11.70;99.90;;;;;;5075268;28;20735;-62
2023/11/16 04:55:10;;;;;;;8.40;4.30;;;11.70;99.90;;;;;;5074542;28;20511;-62
2023/11/16 04:57:36;;;;;;;4.73;4.33;;;11.70;99.90;;;;;;5074816;28;20904;-63
2023/11/16 05:00:10;;;;;;;7.53;4.20;;;11.60;99.90;;;;;;5074504;28;20427;-61
2023/11/16 05:02:37;;;;;;;4.63;3.80;;;11.60;99.90;;;;;;5074530;28;20446;-63
2023/11/16 05:05:03;;;;;;;10.60;4.47;;;11.60;99.90;;;;;;5071795;28;20500;-65
2023/11/16 05:07:29;;;;;;;7.10;4.63;;;11.60;99.90;;;;;;5073923;28;20736;-64
2023/11/16 05:09:58;;;;;;;11.50;6.67;;;11.60;99.90;;;;;;5074426;28;20414;-64
2023/11/16 05:12:24;;;;;;;7.90;5.43;;;11.60;99.90;;;;;;5072873;28;20408;-64
2023/11/16 05:14:53;;;;;;;6.20;4.60;;;11.60;99.90;;;;;;5071049;28;20763;-64
2023/11/16 05:17:19;;;;;;;7.03;4.67;;;11.60;99.90;;;;;;5041701;28;20883;-58
2023/11/16 05:19:45;;;;;;;7.80;4.97;;;11.60;99.90;;;;;;5043787;28;20421;-58
2023/11/16 05:22:11;;;;;;;8.50;5.77;;;11.80;99.90;;;;;;5016427;28;20881;-59
2023/11/16 05:24:36;;;;;;;6.97;4.47;;;11.70;99.90;;;;;;5034948;28;20649;-58
2023/11/16 05:27:02;;;;;;;9.20;6.70;;;11.80;99.90;;;;;;5052512;28;20215;-58
2023/11/16 05:29:29;;;;;;;10.00;5.10;;;11.90;99.90;;;;;;5038832;28;20541;-58
2023/11/16 05:31:57;;;;;;;7.03;6.33;;;12.00;99.90;;;;;;5027301;28;20429;-58
2023/11/16 05:34:22;;;;;;;6.30;5.13;;;12.00;99.90;;;;;;5053806;28;20427;-58
2023/11/16 05:36:49;;;;;;;12.00;4.93;;;12.10;99.90;;;;;;5054330;28;20453;-58
2023/11/16 05:39:16;;;;;;;8.73;5.57;;;12.10;99.90;;;;;;5053746;28;20456;-58
2023/11/16 05:41:42;;;;;;;11.20;6.37;;;12.20;99.90;;;;;;5019546;28;20421;-60
2023/11/16 05:44:08;;;;;;;6.50;4.97;;;12.20;99.90;;;;;;5053038;28;20452;-60
2023/11/16 05:46:33;;;;;;;7.77;7.10;;;12.30;99.90;;;;;;5057264;28;20687;-60
2023/11/16 05:48:59;;;;;;;11.00;5.77;;;12.30;99.90;;;;;;5047099;28;20168;-59
2023/11/16 05:51:25;;;;;;;9.67;5.83;;;12.30;99.90;;;;;;5050229;28;20182;-65
2023/11/16 05:53:51;;;;;;;7.77;6.03;;;12.20;99.90;;;;;;5037268;28;20180;-65
2023/11/16 05:56:17;;;;;;;6.27;4.13;;;12.20;99.90;;;;;;5064850;28;20256;-66
2023/11/16 05:58:42;;;;;;;4.90;4.50;;;12.10;99.90;;;;;;5035602;28;20510;-65
2023/11/16 06:01:13;;;;;;;10.97;7.00;;;12.10;99.90;;;;;;5034837;28;20255;-66
2023/11/16 06:03:39;;;;;;;8.40;6.20;;;12.10;99.90;;;;;;5039701;28;20192;-65
2023/11/16 06:06:05;;;;;;;9.80;7.00;;;12.10;99.90;;;;;;5034243;28;20547;-66
2023/11/16 06:08:31;;;;;;;6.37;5.70;;;12.10;99.90;;;;;;5048345;28;20638;-65
2023/11/16 06:10:57;;;;;;;10.63;5.60;;;12.00;99.90;;;;;;5034991;28;20506;-66
2023/11/16 06:13:23;;;;;;;9.53;5.80;;;12.00;99.90;;;;;;5049592;28;20506;-67
2023/11/16 06:15:49;;;;;;;7.10;5.10;;;12.00;99.90;;;;;;5051681;28;20988;-63
2023/11/16 06:18:16;;;;;;;7.73;6.40;;;12.00;99.90;;;;;;5052677;28;20269;-63
2023/11/16 06:20:43;;;;;;;8.17;4.80;;;11.90;99.90;;;;;;5052705;28;20458;-63
2023/11/16 06:23:09;;;;;;;10.30;5.83;;;11.90;99.90;;;;;;5052303;28;20794;-63
2023/11/16 06:25:34;;;;;;;7.03;6.23;;;11.90;99.90;;;;;;5034747;28;20427;-63
2023/11/16 06:28:00;;;;;;;10.77;5.27;;;11.80;99.90;;;;;;5034959;28;20430;-64
2023/11/16 06:30:26;;;;;;;8.40;5.70;;;11.80;99.90;;;;;;5052668;28;20237;-62
2023/11/16 06:32:52;;;;;;;9.40;8.33;;;11.80;99.90;;;;;;5050810;28;20169;-63
2023/11/16 06:35:17;;;;;;;8.43;5.90;;;11.80;99.90;;;;;;5032716;28;20621;-62
2023/11/16 06:37:43;;;;;;;7.30;5.80;;;11.70;99.90;;;;;;5051686;28;20174;-64
2023/11/16 06:40:09;;;;;;;10.97;6.07;;;11.70;99.90;;;;;;5052980;28;20170;-63
2023/11/16 06:42:36;;;;;;;8.90;6.70;;;11.60;99.90;;;;;;5052513;28;20180;-63
2023/11/16 06:45:05;;;;;;;11.57;8.30;;;11.60;99.90;;;;;;5053238;28;20488;-64
2023/11/16 06:47:32;;;;;;;6.67;5.93;;;11.60;99.90;;;;;;5052511;28;20408;-63
2023/11/16 06:49:58;;;;;;;8.00;6.20;;;11.60;99.90;;;;;;5053285;28;20546;-63
2023/11/16 06:52:26;;;;;;;12.07;7.97;;;11.60;99.90;;;;;;5052438;28;20408;-63
2023/11/16 06:54:53;;;;;;;10.60;9.27;;;11.60;99.90;;;;;;5052916;28;20419;-65
2023/11/16 06:57:22;;;;;;;12.70;8.50;;;11.60;99.90;;;;;;5052284;28;20430;-63
2023/11/16 06:59:53;;;;;;;9.13;7.70;;;11.60;99.90;;;;;;5052882;28;20401;-64
2023/11/16 07:02:22;;;;;;;10.43;9.43;;;11.60;99.90;;;;;;5052091;28;20404;-63
2023/11/16 07:04:49;;;;;;;10.63;7.10;;;11.60;99.90;;;;;;5052812;28;20492;-63
2023/11/16 07:07:18;;;;;;;10.20;6.43;;;11.50;99.90;;;;;;5052718;28;20400;-64
2023/11/16 07:09:45;;;;;;;7.57;6.47;;;11.50;99.90;;;;;;5052913;28;20400;-63
2023/11/16 07:12:12;;;;;;;8.73;6.30;;;11.50;99.90;;;;;;5052814;28;20775;-64
2023/11/16 07:14:38;;;;;;;9.40;8.60;;;11.50;99.90;;;;;;5051886;28;20957;-63
2023/11/16 07:17:04;;;;;;;9.17;6.67;;;11.50;99.90;;;;;;5052605;28;20412;-63
2023/11/16 07:19:29;;;;;;;12.73;7.90;;;11.50;99.90;;;;;;5051983;28;20417;-63
2023/11/16 07:21:55;;;;;;;10.53;8.30;;;11.50;99.90;;;;;;5053137;28;20162;-63
2023/11/16 07:24:22;;;;;;;9.53;8.37;;;11.50;99.90;;;;;;5051840;28;20221;-62
2023/11/16 07:26:48;;;;;;;10.73;7.20;;;11.50;99.90;;;;;;5034311;28;20578;-63
2023/11/16 07:29:17;;;;;;;12.20;8.90;;;11.50;99.90;;;;;;5052337;28;20406;-64
2023/11/16 07:31:43;;;;;;;10.47;7.70;;;11.50;99.90;;;;;;5034713;28;20753;-63
2023/11/16 07:34:09;;;;;;;11.03;7.93;;;11.50;99.90;;;;;;5052424;28;20459;-64
2023/11/16 07:36:37;;;;;;;9.73;8.30;;;11.50;99.90;;;;;;5051749;28;20404;-65
2023/11/16 07:39:04;;;;;;;11.80;7.87;;;11.50;99.90;;;;;;5052313;28;20172;-63
2023/11/16 07:41:30;;;;;;;9.90;7.50;;;11.50;99.90;;;;;;5051705;28;20412;-65
2023/11/16 07:43:59;;;;;;;9.50;7.37;;;11.50;99.90;;;;;;5052465;28;20835;-64
2023/11/16 07:46:24;;;;;;;7.70;6.70;;;11.50;99.90;;;;;;5033935;28;20416;-63
2023/11/16 07:48:50;;;;;;;10.10;7.30;;;11.50;99.90;;;;;;5052204;28;20410;-64
2023/11/16 07:51:19;;;;;;;7.87;6.70;;;11.20;99.90;;;;;;5052317;28;20168;-64
2023/11/16 07:53:51;;;;;;;11.13;7.30;;;11.50;99.90;;;;;;5052407;28;20182;-64
2023/11/16 07:56:18;;;;;;;9.20;7.70;;;11.50;99.90;;;;;;5052275;28;20392;-64
2023/11/16 07:58:52;;;;;;;11.10;6.77;;;11.50;99.90;;;;;;5033833;28;20403;-64
2023/11/16 08:01:22;;;;;;;11.50;7.97;;;11.50;99.90;;;;;;5052125;28;20396;-63
2023/11/16 08:03:55;;;;;;;9.10;8.30;;;11.50;99.90;;;;;;5034113;28;20468;-64
2023/11/16 08:06:22;;;;;;;10.97;7.20;;;11.50;99.90;;;;;;5051614;28;20400;-63
2023/11/16 08:08:49;;;;;;;8.27;6.43;;;11.60;99.90;;;;;;5052250;28;20451;-64
2023/11/16 08:11:17;;;;;;;12.50;8.30;;;11.50;99.90;;;;;;5051985;28;20906;-64
2023/11/16 08:13:47;;;;;;;9.30;7.40;;;11.60;99.90;;;;;;5051450;28;20533;-64
2023/11/16 08:16:16;;;;;;;14.00;9.17;;;11.50;99.90;;;;;;5052165;28;20500;-65
2023/11/16 08:18:42;;;;;;;12.63;7.23;;;11.50;99.90;;;;;;5051374;28;20510;-64
2023/11/16 08:21:09;;;;;;;9.67;7.40;;;11.60;99.90;;;;;;5051966;28;20404;-64
2023/11/16 08:23:39;;;;;;;9.50;7.30;;;11.60;99.90;;;;;;5033655;28;20451;-64
2023/11/16 08:26:12;;;;;;;10.87;7.10;;;11.60;99.90;;;;;;5034173;28;20458;-64
2023/11/16 08:28:46;;;;;;;9.27;8.10;;;11.60;99.90;;;;;;5033415;28;20915;-64
2023/11/16 08:31:13;;;;;;;8.77;7.20;;;11.60;99.90;;;;;;5051849;28;20406;-64
2023/11/16 08:33:40;;;;;;;9.03;7.87;;;11.60;99.90;;;;;;5051457;28;20409;-64
2023/11/16 08:36:13;;;;;;;12.70;9.27;;;11.70;99.90;;;;;;5051804;28;20420;-64
2023/11/16 08:38:41;;;;;;;8.13;6.47;;;11.70;99.90;;;;;;5051960;28;20435;-64
2023/11/16 08:41:15;;;;;;;8.57;7.47;;;11.70;99.90;;;;;;5055530;28;20891;-64
2023/11/16 08:43:46;;;;;;;13.57;7.80;;;11.70;99.90;;;;;;5054924;28;20491;-64
2023/11/16 08:46:20;;;;;;;11.23;8.17;;;11.70;99.90;;;;;;5055909;28;20497;-64
2023/11/16 08:48:49;;;;;;;11.77;8.70;;;11.70;99.90;;;;;;5054769;28;20732;-64
2023/11/16 08:51:22;;;;;;;13.10;9.20;;;11.70;99.90;;;;;;5055572;28;20411;-64
2023/11/16 08:53:54;;;;;;;10.87;8.53;;;11.70;99.90;;;;;;5055338;28;20718;-64
2023/11/16 08:56:20;;;;;;;11.50;8.00;;;11.70;99.90;;;;;;5055276;28;20473;-64
2023/11/16 08:58:48;;;;;;;9.73;8.50;;;11.70;99.90;;;;;;5054819;28;20908;-64
2023/11/16 09:01:19;;;;;;;11.20;8.70;;;11.80;99.90;;;;;;5055419;28;20221;-64
2023/11/16 09:03:45;;;;;;;14.60;10.90;;;11.70;99.90;;;;;;5054523;28;20449;-64
2023/11/16 09:06:18;;;;;;;13.87;10.33;;;11.70;99.90;;;;;;5055010;28;20487;-64
2023/11/16 09:08:48;;;;;;;12.60;8.90;;;11.70;99.90;;;;;;5054448;28;20647;-64
2023/11/16 09:11:17;;;;;;;11.20;10.00;;;11.70;99.90;;;;;;5055076;28;20462;-64
2023/11/16 09:13:44;;;;;;;13.53;10.00;;;11.80;99.90;;;;;;5054328;28;20880;-64
2023/11/16 09:16:10;;;;;;;13.80;9.90;;;11.80;99.90;;;;;;5054599;28;20513;-64
2023/11/16 09:18:38;;;;;;;14.03;10.00;;;11.70;99.90;;;;;;5054182;28;20499;-64
2023/11/16 09:21:06;;;;;;;11.37;9.20;;;11.70;99.90;;;;;;5054619;28;20396;-65
2023/11/16 09:23:33;;;;;;;11.77;10.50;;;11.70;99.90;;;;;;5054045;28;20443;-64
2023/11/16 09:26:00;;;;;;;14.33;10.17;;;11.70;99.90;;;;;;5055048;28;20429;-64
2023/11/16 09:28:25;;;;;;;12.20;9.60;;;11.70;99.90;;;;;;5036227;28;20404;-60
2023/11/16 09:30:51;;;;;;;10.30;8.50;;;11.70;99.90;;;;;;5054596;28;20400;-64
2023/11/16 09:33:18;;;;;;;13.60;11.20;;;11.70;99.90;;;;;;5054812;28;20176;-64
2023/11/16 09:35:45;;;;;;;12.60;9.30;;;11.70;99.90;;;;;;5053876;28;20180;-64
2023/11/16 09:38:11;;;;;;;11.87;10.60;;;11.70;99.90;;;;;;5054505;28;20404;-64
2023/11/16 09:40:38;;;;;;;11.77;10.00;;;11.70;99.90;;;;;;5053802;28;20432;-64
2023/11/16 09:43:17;;;;;;;12.00;8.50;;;11.80;99.90;;;;;;5054350;28;20448;-65
2023/11/16 09:45:48;;;;;;;13.50;8.77;;;11.80;99.90;;;;;;5054020;28;20753;-65
2023/11/16 09:48:22;;;;;;;11.10;9.40;;;11.80;99.90;;;;;;5054264;28;20407;-64
2023/11/16 09:50:50;;;;;;;13.33;8.87;;;11.80;99.90;;;;;;5052849;28;20520;-64
2023/11/16 09:53:17;;;;;;;11.20;8.53;;;11.80;99.90;;;;;;5036289;28;20412;-64
2023/11/16 09:55:55;;;;;;;11.60;9.33;;;11.80;99.90;;;;;;5052561;28;20938;-64
2023/11/16 09:58:28;;;;;;;12.00;9.90;;;11.80;99.90;;;;;;5052256;28;20427;-64
2023/11/16 10:00:58;;;;;;;13.17;8.80;;;11.80;99.90;;;;;;5054020;28;20412;-64
2023/11/16 10:03:31;;;;;;;20.73;10.07;;;11.90;99.90;;;;;;5053571;28;20444;-64
2023/11/16 10:06:03;;;;;;;12.17;9.13;;;11.90;99.90;;;;;;5053345;28;20400;-64
2023/11/16 10:08:33;;;;;;;11.37;9.57;;;11.90;99.90;;;;;;5051892;28;20455;-65
2023/11/16 10:11:06;;;;;;;12.27;10.97;;;11.90;99.90;;;;;;5053068;28;20412;-65
2023/11/16 10:13:34;;;;;;;14.87;10.80;;;11.90;99.90;;;;;;5053162;28;20458;-67
2023/11/16 10:16:06;;;;;;;10.10;9.13;;;11.90;99.90;;;;;;5052441;28;20815;-65
2023/11/16 10:18:33;;;;;;;9.70;8.50;;;11.90;99.90;;;;;;5050313;28;20511;-65
2023/11/16 10:20:59;;;;;;;11.77;8.40;;;11.90;99.90;;;;;;5053423;28;20423;-65
2023/11/16 10:23:25;;;;;;;9.47;8.30;;;11.90;99.90;;;;;;5053308;28;20441;-65
2023/11/16 10:25:51;;;;;;;14.57;10.80;;;11.90;99.90;;;;;;5051869;28;20424;-65
2023/11/16 10:28:22;;;;;;;12.87;9.80;;;11.80;99.90;;;;;;5051532;28;20177;-63
2023/11/16 10:30:50;;;;;;;12.90;9.20;;;11.80;99.90;;;;;;5051873;28;20871;-63
2023/11/16 10:33:23;;;;;;;9.20;8.07;;;11.80;99.90;;;;;;5052162;28;20482;-63
2023/11/16 10:35:50;;;;;;;10.77;9.77;;;11.80;99.90;;;;;;5049809;28;20915;-64
2023/11/16 10:38:17;;;;;;;8.87;8.17;;;11.90;99.90;;;;;;5052359;28;20524;-64
2023/11/16 10:40:47;;;;;;;8.67;6.93;;;11.90;99.90;;;;;;5050325;28;20929;-64
2023/11/16 10:43:25;;;;;;;10.00;7.77;;;11.90;99.90;;;;;;5052666;28;20452;-64
2023/11/16 10:45:59;;;;;;;9.67;8.87;;;11.90;99.90;;;;;;5052915;28;20419;-64
2023/11/16 10:48:26;;;;;;;12.07;7.90;;;11.90;99.90;;;;;;5053574;28;20487;-66
2023/11/16 10:50:52;;;;;;;11.30;6.93;;;11.90;99.90;;;;;;5034613;28;20776;-64
2023/11/16 10:53:22;;;;;;;7.57;6.57;;;12.00;99.90;;;;;;5053305;28;20409;-64
2023/11/16 10:55:52;;;;;;;7.43;6.73;;;12.00;99.90;;;;;;5052451;28;20407;-64
2023/11/16 10:58:21;;;;;;;15.40;7.70;;;12.00;99.90;;;;;;5053057;28;20898;-64
2023/11/16 11:00:57;;;;;;;7.90;7.20;;;12.00;99.90;;;;;;5034412;28;20416;-64
2023/11/16 11:03:24;;;;;;;9.63;7.00;;;12.00;99.90;;;;;;5052847;28;20434;-63
2023/11/16 11:05:57;;;;;;;9.73;8.77;;;12.00;99.90;;;;;;5052414;28;20413;-64
2023/11/16 11:08:35;;;;;;;6.97;5.67;;;12.00;99.90;;;;;;5018623;28;20407;-64
2023/11/16 11:11:12;;;;;;;7.90;7.20;;;12.00;99.90;;;;;;5052950;28;20385;-63
2023/11/16 11:13:43;;;;;;;8.90;6.83;;;12.00;99.90;;;;;;5052198;28;20403;-63
2023/11/16 11:16:15;;;;;;;8.90;8.00;;;12.00;99.90;;;;;;5052480;28;20485;-64
2023/11/16 11:18:46;;;;;;;8.10;7.40;;;12.00;99.90;;;;;;5034378;28;20450;-64
2023/11/16 11:21:14;;;;;;;12.13;8.23;;;12.00;99.90;;;;;;5035259;28;20446;-64
2023/11/16 11:23:41;;;;;;;12.00;10.70;;;12.00;99.90;;;;;;5051969;28;20441;-63
2023/11/16 11:26:08;;;;;;;12.03;9.13;;;12.00;99.90;;;;;;5052586;28;20397;-64
2023/11/16 11:28:35;;;;;;;10.70;9.63;;;12.00;99.90;;;;;;5051920;28;20419;-63
2023/11/16 11:31:04;;;;;;;9.93;8.90;;;12.00;99.90;;;;;;5052489;28;20945;-64
2023/11/16 11:33:35;;;;;;;10.30;7.73;;;12.00;99.90;;;;;;5052505;28;20412;-64
2023/11/16 11:36:03;;;;;;;8.73;7.83;;;12.00;99.90;;;;;;5052406;28;20455;-64
2023/11/16 11:38:30;;;;;;;10.70;7.37;;;12.00;99.90;;;;;;5052639;28;20411;-64
2023/11/16 11:41:09;;;;;;;10.53;8.90;;;12.00;99.90;;;;;;5051722;28;20427;-64
2023/11/16 11:43:38;;;;;;;10.50;9.57;;;12.00;99.90;;;;;;5051857;28;20941;-64
2023/11/16 11:46:05;;;;;;;9.33;8.13;;;12.10;99.90;;;;;;5052192;28;20559;-64
2023/11/16 11:48:33;;;;;;;11.10;8.33;;;12.10;99.90;;;;;;5034312;28;20908;-64
2023/11/16 11:51:04;;;;;;;13.53;10.27;;;12.10;99.90;;;;;;5034699;28;20431;-64
2023/11/16 11:53:32;;;;;;;12.47;10.40;;;12.10;99.90;;;;;;5052128;28;20409;-63
2023/11/16 11:56:00;;;;;;;12.70;8.37;;;12.10;99.90;;;;;;5052148;28;20416;-64
2023/11/16 11:58:26;;;;;;;10.40;9.30;;;12.10;99.90;;;;;;5052172;28;20408;-64
2023/11/16 12:00:56;;;;;;;11.00;9.37;;;12.10;99.90;;;;;;5051557;28;20412;-64
2023/11/16 12:03:22;;;;;;;12.30;9.77;;;12.10;99.90;;;;;;5052037;28;20469;-64
2023/11/16 12:05:58;;;;;;;12.23;10.67;;;12.10;99.90;;;;;;5051559;28;20428;-63
2023/11/16 12:08:43;;;;;;;12.33;8.60;;;12.10;99.90;;;;;;5052401;28;20386;-64
2023/11/16 12:11:11;;;;;;;10.07;8.47;;;12.10;99.90;;;;;;5052341;28;20411;-64
2023/11/16 12:13:41;;;;;;;8.70;7.80;;;12.10;99.90;;;;;;5052176;28;20464;-63
2023/11/16 12:16:10;;;;;;;15.80;10.90;;;12.10;99.90;;;;;;5055824;28;20468;-64
2023/11/16 12:18:37;;;;;;;12.63;10.17;;;12.10;99.90;;;;;;5055628;28;20746;-61
2023/11/16 12:21:10;;;;;;;12.80;9.80;;;12.10;99.90;;;;;;5055948;28;20424;-64
2023/11/16 12:23:44;;;;;;;10.53;9.33;;;12.20;99.90;;;;;;5055190;28;20463;-63
2023/11/16 12:26:11;;;;;;;13.13;10.40;;;12.20;99.90;;;;;;5055919;28;20399;-64
2023/11/16 12:28:37;;;;;;;14.10;9.57;;;12.20;99.90;;;;;;5055194;28;20458;-63
2023/11/16 12:31:04;;;;;;;11.90;8.90;;;12.20;99.90;;;;;;5055876;28;20497;-64
2023/11/16 12:33:32;;;;;;;16.00;10.23;;;12.20;99.90;;;;;;5055684;28;20442;-64
2023/11/16 12:35:59;;;;;;;12.93;9.50;;;12.20;99.90;;;;;;5055055;28;20415;-64
2023/11/16 12:38:25;;;;;;;12.20;10.03;;;12.20;99.90;;;;;;5055670;28;20747;-64
2023/11/16 12:40:51;;;;;;;11.03;9.90;;;12.20;99.90;;;;;;5055253;28;20402;-64
2023/11/16 12:43:17;;;;;;;11.07;9.63;;;12.20;99.90;;;;;;5055469;28;21003;-64
2023/11/16 12:45:43;;;;;;;13.90;9.67;;;12.30;99.90;;;;;;5055236;28;20411;-64
2023/11/16 12:48:09;;;;;;;9.20;8.30;;;12.20;99.90;;;;;;5055452;28;20806;-64